Time;durP1;ratioP1;P1;durP2;ratioP2;P2;SDS_P1;SDS_P2;PMS_P1;PMS_P2;Temp;Humidity;BMP_temperature;BMP_pressure;BME280_temperature;BME280_humidity;BME280_pressure;Samples;Min_cycle;Max_cycle;Signal;HPM_P1;HPM_P2
2023/01/19 00:00:00;;;;;;;3.22;2.92;;;18.90;52.80;;;;;;4956653;28;20197;-67
2023/01/19 00:02:26;;;;;;;4.43;2.90;;;18.80;52.80;;;;;;4937256;29;20226;-67
2023/01/19 00:04:52;;;;;;;3.13;2.83;;;18.80;52.80;;;;;;4937570;29;20218;-67
2023/01/19 00:07:17;;;;;;;3.25;2.90;;;18.80;52.70;;;;;;4971632;28;20205;-67
2023/01/19 00:09:43;;;;;;;4.45;2.97;;;18.90;52.80;;;;;;4955999;28;20190;-67
2023/01/19 00:12:09;;;;;;;3.33;2.85;;;18.80;52.70;;;;;;4956137;28;20241;-67
2023/01/19 00:14:35;;;;;;;3.28;2.80;;;18.80;52.70;;;;;;4940390;28;20287;-66
2023/01/19 00:17:01;;;;;;;3.03;2.70;;;18.90;52.80;;;;;;4956329;28;20182;-67
2023/01/19 00:19:27;;;;;;;4.00;2.97;;;18.80;52.60;;;;;;4940518;28;20212;-67
2023/01/19 00:21:53;;;;;;;3.15;2.80;;;18.80;52.60;;;;;;4940641;28;20280;-67
2023/01/19 00:24:19;;;;;;;3.35;2.70;;;18.80;52.50;;;;;;4956497;28;20274;-66
2023/01/19 00:26:46;;;;;;;3.13;2.83;;;18.80;52.50;;;;;;4956154;28;20193;-67
2023/01/19 00:29:13;;;;;;;3.03;2.72;;;18.90;52.50;;;;;;4956240;28;20275;-67
2023/01/19 00:31:39;;;;;;;4.25;3.20;;;18.80;52.50;;;;;;4940114;28;20217;-66
2023/01/19 00:34:07;;;;;;;3.60;3.13;;;18.80;52.50;;;;;;4956431;28;20185;-67
2023/01/19 00:36:33;;;;;;;4.30;3.78;;;18.80;52.50;;;;;;4955894;28;20198;-67
2023/01/19 00:38:59;;;;;;;4.10;3.60;;;18.90;52.50;;;;;;4956257;28;20217;-66
2023/01/19 00:44:11;;;;;;;5.32;4.38;;;18.90;52.50;;;;;;4955990;28;20344;-66
2023/01/19 00:46:38;;;;;;;4.75;4.25;;;18.80;52.40;;;;;;4940084;28;20196;-67
2023/01/19 00:49:04;;;;;;;5.95;4.68;;;18.90;52.50;;;;;;4940016;28;20216;-66
2023/01/19 00:51:30;;;;;;;4.60;4.15;;;18.90;52.40;;;;;;4955995;28;20344;-67
2023/01/19 00:53:56;;;;;;;5.97;4.60;;;18.90;52.40;;;;;;4956180;28;20284;-67
2023/01/19 00:56:22;;;;;;;6.13;4.72;;;18.90;52.40;;;;;;4956402;28;20671;-67
2023/01/19 00:58:47;;;;;;;5.93;4.70;;;18.90;52.40;;;;;;4956362;28;20204;-67
2023/01/19 01:01:13;;;;;;;5.53;4.28;;;18.90;53.10;;;;;;4940180;28;20194;-67
2023/01/19 01:03:39;;;;;;;5.32;4.50;;;18.90;52.30;;;;;;4939946;28;20304;-67
2023/01/19 01:06:07;;;;;;;5.65;5.05;;;18.90;53.00;;;;;;4956109;28;20201;-67
2023/01/19 01:08:33;;;;;;;6.32;5.28;;;18.90;52.30;;;;;;4940179;28;20226;-67
2023/01/19 01:11:00;;;;;;;5.97;5.07;;;18.80;52.20;;;;;;4955655;28;20610;-67
2023/01/19 01:13:26;;;;;;;6.10;4.47;;;18.90;52.30;;;;;;4939795;28;20216;-66
2023/01/19 01:15:54;;;;;;;6.25;4.70;;;18.90;52.20;;;;;;4955605;28;20182;-67
2023/01/19 01:18:21;;;;;;;5.07;4.53;;;18.90;52.20;;;;;;4953264;28;20190;-66
2023/01/19 01:20:46;;;;;;;5.45;4.50;;;18.90;52.10;;;;;;4955460;28;20196;-66
2023/01/19 01:23:13;;;;;;;4.45;3.95;;;18.90;52.10;;;;;;4955687;28;20288;-67
2023/01/19 01:25:39;;;;;;;5.88;4.78;;;18.90;52.10;;;;;;4939572;28;20218;-67
2023/01/19 01:28:07;;;;;;;4.60;4.07;;;18.90;52.00;;;;;;4939463;28;20233;-67
2023/01/19 01:30:39;;;;;;;4.53;4.10;;;18.90;52.10;;;;;;4955310;28;20217;-67
2023/01/19 01:33:07;;;;;;;5.57;4.60;;;18.90;52.10;;;;;;4955505;28;20209;-67
2023/01/19 01:35:33;;;;;;;4.68;4.15;;;18.90;52.00;;;;;;4955430;28;20214;-67
2023/01/19 01:38:00;;;;;;;5.03;4.40;;;18.90;52.00;;;;;;4936417;29;20237;-67
2023/01/19 01:40:27;;;;;;;5.25;4.65;;;18.90;52.00;;;;;;4953537;28;20197;-67
2023/01/19 01:42:53;;;;;;;5.32;4.80;;;18.90;51.90;;;;;;4972574;28;20213;-67
2023/01/19 01:45:35;;;;;;;5.03;4.05;;;18.90;52.00;;;;;;4931529;28;20194;-67
2023/01/19 01:48:21;;;;;;;5.03;4.53;;;18.90;52.00;;;;;;4932115;28;20193;-67
2023/01/19 01:51:28;;;;;;;4.75;4.15;;;18.90;52.00;;;;;;4958812;28;20205;-67
2023/01/19 01:54:21;;;;;;;5.25;4.75;;;18.90;51.90;;;;;;4953451;28;20230;-67
2023/01/19 01:56:52;;;;;;;4.53;4.13;;;18.90;51.80;;;;;;4951052;28;20186;-67
2023/01/19 01:59:33;;;;;;;5.03;4.53;;;18.90;51.80;;;;;;4942684;28;20196;-67
2023/01/19 02:05:02;;;;;;;4.80;4.10;;;18.90;51.90;;;;;;4952352;28;20193;-67
2023/01/19 02:13:36;;;;;;;4.97;4.47;;;18.90;51.70;;;;;;4958204;28;20216;-67
2023/01/19 02:16:07;;;;;;;5.20;4.43;;;18.90;51.80;;;;;;4958317;28;20240;-66
2023/01/19 02:18:34;;;;;;;5.03;4.53;;;18.90;51.70;;;;;;4975503;28;20189;-67
2023/01/19 02:21:45;;;;;;;4.80;4.40;;;18.90;51.70;;;;;;4958154;28;20197;-67
2023/01/19 02:24:11;;;;;;;5.43;4.25;;;18.90;51.60;;;;;;4948330;28;20307;-67
2023/01/19 02:26:43;;;;;;;4.78;4.28;;;18.90;51.60;;;;;;4942220;28;20282;-67
2023/01/19 02:29:14;;;;;;;4.65;4.20;;;18.90;51.60;;;;;;4958122;28;20197;-67
2023/01/19 02:31:41;;;;;;;4.28;3.88;;;18.90;51.60;;;;;;4942091;28;20232;-66
2023/01/19 02:34:10;;;;;;;4.85;4.35;;;18.90;51.50;;;;;;4957931;28;20186;-67
2023/01/19 02:36:57;;;;;;;5.35;3.90;;;18.90;51.50;;;;;;4941419;28;20193;-67
2023/01/19 02:39:35;;;;;;;4.50;4.07;;;18.90;51.60;;;;;;4949834;28;20181;-67
2023/01/19 02:42:09;;;;;;;4.28;3.78;;;18.90;51.60;;;;;;4958116;28;20220;-67
2023/01/19 02:44:38;;;;;;;4.88;4.32;;;18.90;51.60;;;;;;4957827;28;20185;-67
2023/01/19 02:47:04;;;;;;;4.57;4.05;;;18.90;51.50;;;;;;4957787;28;20196;-67
2023/01/19 02:49:30;;;;;;;4.97;4.20;;;18.90;51.50;;;;;;4941591;28;20185;-67
2023/01/19 02:51:57;;;;;;;5.88;4.05;;;18.90;51.50;;;;;;4941631;28;20225;-67
2023/01/19 02:54:40;;;;;;;4.25;3.85;;;18.90;51.40;;;;;;4933833;28;20277;-67
2023/01/19 02:58:12;;;;;;;4.25;3.83;;;18.90;51.50;;;;;;4941573;28;20190;-66
2023/01/19 03:01:00;;;;;;;5.30;3.97;;;19.00;51.50;;;;;;4946283;28;20241;-67
2023/01/19 03:04:01;;;;;;;4.28;3.88;;;18.90;52.00;;;;;;4949283;28;20220;-67
2023/01/19 03:06:48;;;;;;;3.97;3.53;;;18.90;51.50;;;;;;4956996;28;20189;-66
2023/01/19 03:09:25;;;;;;;4.32;3.83;;;19.00;52.00;;;;;;4957468;28;20192;-67
2023/01/19 03:12:15;;;;;;;4.78;4.32;;;18.90;51.30;;;;;;4936724;28;20312;-67
2023/01/19 03:14:47;;;;;;;4.53;4.13;;;19.00;51.30;;;;;;4957284;28;20240;-67
2023/01/19 03:17:17;;;;;;;4.57;3.97;;;18.90;51.30;;;;;;4957243;28;20189;-67
2023/01/19 03:19:48;;;;;;;4.10;3.70;;;19.00;51.40;;;;;;4956859;28;20197;-66
2023/01/19 03:22:22;;;;;;;4.70;4.20;;;18.90;51.20;;;;;;4949987;29;20302;-67
2023/01/19 03:24:52;;;;;;;4.60;4.18;;;18.90;51.20;;;;;;4957399;28;20208;-66
2023/01/19 03:27:40;;;;;;;5.22;4.55;;;19.00;51.20;;;;;;4949462;29;20698;-67
2023/01/19 03:30:19;;;;;;;4.63;4.03;;;19.00;51.20;;;;;;4974302;28;20205;-67
2023/01/19 03:32:55;;;;;;;4.70;4.10;;;19.00;51.20;;;;;;4940784;28;20749;-67
2023/01/19 03:35:25;;;;;;;4.90;4.40;;;19.00;51.20;;;;;;4957170;28;20239;-67
2023/01/19 03:37:56;;;;;;;4.97;4.40;;;19.00;51.20;;;;;;4966161;28;20201;-67
2023/01/19 03:40:30;;;;;;;4.25;3.85;;;19.00;51.20;;;;;;4956699;28;20186;-67
2023/01/19 03:42:56;;;;;;;5.55;4.72;;;19.00;51.10;;;;;;4956691;28;20770;-67
2023/01/19 03:45:22;;;;;;;4.82;4.35;;;19.00;51.10;;;;;;4940987;28;20186;-66
2023/01/19 03:47:48;;;;;;;4.47;4.00;;;19.00;51.00;;;;;;4929992;29;20281;-67
2023/01/19 03:50:27;;;;;;;5.50;4.40;;;19.00;51.00;;;;;;4952498;28;20276;-67
2023/01/19 03:53:12;;;;;;;3.80;3.50;;;19.00;50.90;;;;;;4956602;28;20209;-67
2023/01/19 03:55:46;;;;;;;4.13;3.72;;;19.00;50.90;;;;;;4940879;28;20193;-67
2023/01/19 03:58:12;;;;;;;3.88;3.58;;;19.00;51.00;;;;;;4956460;28;20200;-67
2023/01/19 04:00:38;;;;;;;4.15;3.78;;;19.00;50.90;;;;;;4956615;28;20204;-67
2023/01/19 04:03:06;;;;;;;4.25;3.83;;;19.00;50.90;;;;;;4940345;28;20214;-67
2023/01/19 04:05:32;;;;;;;4.18;3.78;;;19.00;50.90;;;;;;4948473;28;20194;-67
2023/01/19 04:07:58;;;;;;;4.03;3.60;;;19.00;50.90;;;;;;4956423;28;20189;-67
2023/01/19 04:10:24;;;;;;;4.05;3.63;;;19.00;50.90;;;;;;4939555;28;20204;-67
2023/01/19 04:12:57;;;;;;;4.20;3.80;;;19.00;50.90;;;;;;4948383;28;20209;-67
2023/01/19 04:15:24;;;;;;;3.80;3.40;;;19.00;50.80;;;;;;4948274;28;20285;-67
2023/01/19 04:17:50;;;;;;;3.80;3.50;;;19.00;50.80;;;;;;4956231;28;20300;-67
2023/01/19 04:20:16;;;;;;;3.70;3.40;;;19.00;50.80;;;;;;4940314;28;20784;-67
2023/01/19 04:22:42;;;;;;;3.50;3.20;;;19.00;50.80;;;;;;4940103;28;20370;-67
2023/01/19 04:25:08;;;;;;;3.75;3.45;;;19.00;50.80;;;;;;4956375;28;20244;-67
2023/01/19 04:27:35;;;;;;;3.47;3.17;;;19.00;50.80;;;;;;4955804;28;20280;-67
2023/01/19 04:30:03;;;;;;;3.92;3.50;;;19.00;50.60;;;;;;4936768;29;20281;-67
2023/01/19 04:32:30;;;;;;;3.95;3.55;;;19.00;50.50;;;;;;4961357;28;20233;-67
2023/01/19 04:34:56;;;;;;;3.83;3.45;;;19.00;50.70;;;;;;4973358;28;20232;-67
2023/01/19 04:37:22;;;;;;;3.95;3.25;;;19.00;50.60;;;;;;4956053;28;20276;-67
2023/01/19 04:39:47;;;;;;;3.78;3.45;;;19.00;50.50;;;;;;4956043;28;20181;-67
2023/01/19 04:42:14;;;;;;;4.28;3.60;;;19.00;50.50;;;;;;4973166;28;20245;-67
2023/01/19 04:44:39;;;;;;;3.60;3.30;;;19.00;50.50;;;;;;4940369;28;20194;-67
2023/01/19 04:47:05;;;;;;;3.05;2.78;;;19.00;50.50;;;;;;4955989;28;20539;-67
2023/01/19 04:49:31;;;;;;;3.42;3.13;;;19.00;50.50;;;;;;4955822;28;20200;-67
2023/01/19 04:54:50;;;;;;;3.33;3.03;;;19.00;50.50;;;;;;4971371;28;20220;-67
2023/01/19 04:57:15;;;;;;;4.00;2.75;;;19.00;50.50;;;;;;4973122;28;20189;-66
2023/01/19 04:59:41;;;;;;;3.20;2.90;;;19.00;50.50;;;;;;4938502;28;20198;-67
2023/01/19 05:02:07;;;;;;;3.13;2.83;;;19.00;50.50;;;;;;4955728;28;20750;-66
2023/01/19 05:04:32;;;;;;;3.50;3.20;;;19.00;50.50;;;;;;4971657;28;20278;-66
2023/01/19 05:06:58;;;;;;;3.00;2.80;;;19.00;50.50;;;;;;4955640;28;20590;-67
2023/01/19 05:09:24;;;;;;;3.95;3.10;;;19.00;50.50;;;;;;4939461;28;20185;-66
2023/01/19 05:11:50;;;;;;;4.03;3.13;;;19.00;50.50;;;;;;4939626;28;20205;-67
2023/01/19 05:14:16;;;;;;;2.90;2.70;;;19.00;50.50;;;;;;4939719;28;20288;-67
2023/01/19 05:16:42;;;;;;;3.50;2.97;;;19.00;50.50;;;;;;4949160;28;20181;-67
2023/01/19 05:19:08;;;;;;;3.53;2.88;;;19.00;50.50;;;;;;4952277;29;20199;-66
2023/01/19 05:21:33;;;;;;;2.67;2.47;;;19.00;50.50;;;;;;4937747;28;20230;-66
2023/01/19 05:23:59;;;;;;;2.65;2.45;;;19.00;50.50;;;;;;4959425;28;20212;-66
2023/01/19 05:26:25;;;;;;;3.00;2.75;;;19.00;50.50;;;;;;4943627;28;20190;-67
2023/01/19 05:28:50;;;;;;;4.63;3.15;;;19.00;50.50;;;;;;4943456;28;20209;-66
2023/01/19 05:31:16;;;;;;;3.33;3.00;;;19.00;50.60;;;;;;4959115;28;20213;-67
2023/01/19 05:33:42;;;;;;;2.70;2.50;;;19.00;50.50;;;;;;4959134;28;20213;-67
2023/01/19 05:36:08;;;;;;;3.08;2.78;;;19.00;50.30;;;;;;4976511;28;20194;-66
2023/01/19 05:38:34;;;;;;;3.03;2.78;;;19.00;50.30;;;;;;4959377;28;20293;-67
2023/01/19 05:40:59;;;;;;;2.90;2.70;;;19.00;50.20;;;;;;4943068;28;20193;-66
2023/01/19 05:43:25;;;;;;;2.72;2.53;;;19.00;50.20;;;;;;4942981;28;20263;-66
2023/01/19 05:45:51;;;;;;;3.40;3.10;;;19.00;50.20;;;;;;4975020;28;20194;-67
2023/01/19 05:48:16;;;;;;;2.83;2.53;;;19.00;50.20;;;;;;4975378;28;20197;-66
2023/01/19 05:50:42;;;;;;;3.53;3.10;;;19.00;50.20;;;;;;4958544;28;20604;-67
2023/01/19 05:53:08;;;;;;;3.22;2.92;;;19.00;50.20;;;;;;4976014;28;20601;-66
2023/01/19 05:55:34;;;;;;;3.13;2.92;;;19.00;50.20;;;;;;4958747;28;20202;-67
2023/01/19 05:58:00;;;;;;;3.55;3.25;;;19.00;50.20;;;;;;4943161;28;20181;-67
2023/01/19 06:00:26;;;;;;;3.20;2.90;;;19.00;50.10;;;;;;4958532;28;20201;-67
2023/01/19 06:02:52;;;;;;;3.85;3.55;;;19.00;50.20;;;;;;4958637;28;20709;-67
2023/01/19 06:05:18;;;;;;;3.80;3.08;;;19.00;50.10;;;;;;4958786;28;20216;-67
2023/01/19 06:07:44;;;;;;;4.38;3.40;;;19.00;50.20;;;;;;4957407;28;20190;-68
2023/01/19 06:10:10;;;;;;;3.40;3.10;;;19.00;50.20;;;;;;4955008;29;20212;-68
2023/01/19 06:12:40;;;;;;;3.50;3.20;;;19.00;50.10;;;;;;4950120;28;20686;-68
2023/01/19 06:15:06;;;;;;;3.28;2.97;;;19.00;50.10;;;;;;4942472;28;20193;-68
2023/01/19 06:17:32;;;;;;;4.22;2.92;;;19.00;50.20;;;;;;4975651;28;20534;-68
2023/01/19 06:19:58;;;;;;;4.28;3.60;;;19.00;50.10;;;;;;4942153;28;20186;-67
2023/01/19 06:22:24;;;;;;;3.58;3.25;;;19.00;50.10;;;;;;4942561;28;20217;-68
2023/01/19 06:24:50;;;;;;;3.40;2.97;;;19.00;50.00;;;;;;4958014;28;20197;-67
2023/01/19 06:27:16;;;;;;;3.53;3.17;;;19.10;50.10;;;;;;4958400;28;20189;-67
2023/01/19 06:29:41;;;;;;;4.63;3.10;;;19.00;50.00;;;;;;4975234;28;20201;-67
2023/01/19 06:32:07;;;;;;;3.13;2.83;;;19.10;50.10;;;;;;4941935;28;20291;-67
2023/01/19 06:34:33;;;;;;;3.30;3.00;;;19.00;50.10;;;;;;4957503;28;20201;-67
2023/01/19 06:36:58;;;;;;;3.33;2.78;;;19.00;50.00;;;;;;4958339;28;20196;-67
2023/01/19 06:39:24;;;;;;;3.72;3.10;;;19.00;50.00;;;;;;4957831;28;20205;-67
2023/01/19 06:41:50;;;;;;;3.30;3.00;;;19.00;50.00;;;;;;4957862;28;20719;-67
2023/01/19 06:44:16;;;;;;;3.83;3.20;;;19.00;50.40;;;;;;4926461;28;20268;-68
2023/01/19 06:46:42;;;;;;;3.45;3.15;;;19.00;50.50;;;;;;4942047;28;20190;-67
2023/01/19 06:49:08;;;;;;;3.58;3.22;;;19.00;50.50;;;;;;4956972;28;20193;-67
2023/01/19 06:51:34;;;;;;;5.38;3.03;;;19.00;50.30;;;;;;4957626;28;20221;-67
2023/01/19 06:53:59;;;;;;;3.42;2.92;;;19.00;50.20;;;;;;4957720;28;20225;-67
2023/01/19 06:56:25;;;;;;;3.30;2.95;;;19.00;50.20;;;;;;4957939;28;20209;-68
2023/01/19 06:58:52;;;;;;;4.35;3.28;;;19.00;50.20;;;;;;4957670;28;20178;-68
2023/01/19 07:01:18;;;;;;;3.97;3.08;;;19.00;50.20;;;;;;4941881;28;20189;-67
2023/01/19 07:03:44;;;;;;;5.25;3.33;;;19.00;50.10;;;;;;4972635;28;20276;-67
2023/01/19 07:06:10;;;;;;;3.88;3.20;;;19.00;50.10;;;;;;4957003;28;20197;-67
2023/01/19 07:08:37;;;;;;;3.83;3.00;;;19.00;50.10;;;;;;4941659;28;20190;-68
2023/01/19 07:11:10;;;;;;;4.70;3.60;;;19.00;50.10;;;;;;4936773;28;20280;-68
2023/01/19 07:13:37;;;;;;;3.88;3.47;;;19.00;50.00;;;;;;4960248;28;20224;-68
2023/01/19 07:16:06;;;;;;;4.10;3.40;;;19.00;50.00;;;;;;4970656;28;20280;-68
2023/01/19 07:18:32;;;;;;;4.15;3.08;;;19.00;50.00;;;;;;4953546;28;20189;-67
2023/01/19 07:20:58;;;;;;;3.83;3.38;;;19.00;50.60;;;;;;4956943;28;20189;-67
2023/01/19 07:23:24;;;;;;;4.18;3.42;;;19.00;50.00;;;;;;4956987;28;20710;-68
2023/01/19 07:25:49;;;;;;;3.60;3.20;;;19.00;49.90;;;;;;4957195;28;20289;-67
2023/01/19 07:28:16;;;;;;;3.95;3.55;;;19.00;49.90;;;;;;4974231;28;20190;-69
2023/01/19 07:30:42;;;;;;;3.83;3.45;;;19.00;49.80;;;;;;4940630;28;20599;-68
2023/01/19 07:33:08;;;;;;;3.70;3.40;;;19.00;49.80;;;;;;4974324;28;20205;-67
2023/01/19 07:35:34;;;;;;;4.13;3.38;;;19.00;49.80;;;;;;4956567;28;20786;-67
2023/01/19 07:38:00;;;;;;;3.47;3.10;;;19.00;49.80;;;;;;4955547;28;20190;-67
2023/01/19 07:40:26;;;;;;;3.85;3.45;;;19.00;49.70;;;;;;4940215;28;20186;-67
2023/01/19 07:42:51;;;;;;;3.95;3.38;;;19.00;49.70;;;;;;4940030;28;20213;-67
2023/01/19 07:45:19;;;;;;;3.40;3.10;;;19.00;49.70;;;;;;4956095;28;20200;-67
2023/01/19 07:47:50;;;;;;;4.25;3.72;;;19.00;49.70;;;;;;4956181;28;20194;-67
2023/01/19 07:50:20;;;;;;;3.45;3.15;;;19.00;49.70;;;;;;4940133;28;20247;-67
2023/01/19 07:52:46;;;;;;;3.67;3.10;;;19.00;49.60;;;;;;4971989;28;20229;-67
2023/01/19 07:55:11;;;;;;;3.78;3.25;;;19.00;49.60;;;;;;4921402;29;20199;-67
2023/01/19 07:57:37;;;;;;;3.70;3.40;;;19.00;49.60;;;;;;4920881;28;20249;-68
2023/01/19 08:00:04;;;;;;;5.25;3.67;;;19.00;49.60;;;;;;4929198;29;20209;-67
2023/01/19 08:02:38;;;;;;;3.90;3.50;;;18.90;49.50;;;;;;4970244;28;20267;-67
2023/01/19 08:05:04;;;;;;;3.75;3.45;;;19.00;49.60;;;;;;4952974;29;20191;-67
2023/01/19 08:07:32;;;;;;;3.67;3.38;;;19.00;49.60;;;;;;4951988;28;20194;-67
2023/01/19 08:09:57;;;;;;;3.63;3.33;;;19.00;49.60;;;;;;4970304;28;20194;-67
2023/01/19 08:12:23;;;;;;;4.18;3.70;;;19.00;49.60;;;;;;4934682;28;20228;-67
2023/01/19 08:14:49;;;;;;;4.22;3.83;;;19.00;49.60;;;;;;4971804;28;20221;-67
2023/01/19 08:17:14;;;;;;;4.75;4.25;;;19.00;49.50;;;;;;4955981;28;20193;-67
2023/01/19 08:19:42;;;;;;;4.78;4.20;;;19.00;49.40;;;;;;4936705;28;20191;-67
2023/01/19 08:22:07;;;;;;;4.20;3.80;;;19.00;49.40;;;;;;4973012;28;20189;-68
2023/01/19 08:24:33;;;;;;;4.63;4.03;;;19.00;49.40;;;;;;4952495;29;20253;-68
2023/01/19 08:27:01;;;;;;;4.80;4.10;;;19.00;49.40;;;;;;4972056;28;20621;-67
2023/01/19 08:29:30;;;;;;;4.78;4.30;;;19.00;49.40;;;;;;4955561;28;20189;-67
2023/01/19 08:31:58;;;;;;;4.55;4.13;;;19.00;49.30;;;;;;4955555;28;20217;-67
2023/01/19 08:34:24;;;;;;;5.00;4.50;;;19.00;49.30;;;;;;4955601;28;20284;-67
2023/01/19 08:36:50;;;;;;;5.10;4.60;;;19.00;49.40;;;;;;4957285;28;20189;-67
2023/01/19 08:39:17;;;;;;;5.25;4.75;;;19.00;49.30;;;;;;4939257;28;20194;-67
2023/01/19 08:41:43;;;;;;;5.28;4.10;;;19.00;49.40;;;;;;4955532;28;20244;-67
2023/01/19 08:44:09;;;;;;;5.40;4.68;;;19.10;49.50;;;;;;4955699;28;20221;-67
2023/01/19 08:46:35;;;;;;;5.07;4.57;;;19.00;49.30;;;;;;4955718;28;20244;-67
2023/01/19 08:49:01;;;;;;;5.45;4.93;;;19.00;49.30;;;;;;4944399;28;20202;-66
2023/01/19 08:51:26;;;;;;;5.00;4.45;;;19.00;49.30;;;;;;4953426;28;20206;-67
2023/01/19 08:53:52;;;;;;;5.38;4.50;;;19.10;49.50;;;;;;4953301;28;20222;-67
2023/01/19 08:56:18;;;;;;;5.68;4.80;;;19.00;49.30;;;;;;4936363;28;20277;-67
2023/01/19 08:58:44;;;;;;;5.18;4.68;;;19.10;49.40;;;;;;4940043;28;20576;-67
2023/01/19 09:01:21;;;;;;;5.03;4.50;;;19.10;49.40;;;;;;4959264;28;20317;-67
2023/01/19 09:03:47;;;;;;;5.40;4.75;;;19.10;49.40;;;;;;4975254;28;20427;-67
2023/01/19 09:06:17;;;;;;;5.07;4.57;;;19.10;49.40;;;;;;4939911;29;20197;-67
2023/01/19 09:08:43;;;;;;;6.00;4.93;;;19.10;49.40;;;;;;4924218;28;20205;-67
2023/01/19 09:11:10;;;;;;;5.05;4.55;;;19.10;49.30;;;;;;4931612;29;20214;-67
2023/01/19 09:13:37;;;;;;;5.10;4.70;;;19.10;49.30;;;;;;4971490;28;20221;-67
2023/01/19 09:16:03;;;;;;;5.20;4.70;;;19.10;49.40;;;;;;4956069;28;20590;-67
2023/01/19 09:18:29;;;;;;;5.35;4.80;;;19.10;49.40;;;;;;4939837;29;20719;-67
2023/01/19 09:20:56;;;;;;;5.72;4.85;;;19.10;49.40;;;;;;4939619;28;20201;-67
2023/01/19 09:23:22;;;;;;;4.97;4.50;;;19.10;49.40;;;;;;4939624;29;20225;-67
2023/01/19 09:25:55;;;;;;;5.00;4.10;;;19.10;49.40;;;;;;4955692;28;20197;-67
2023/01/19 09:28:20;;;;;;;4.63;4.22;;;19.20;49.50;;;;;;4923691;29;20279;-67
2023/01/19 09:30:46;;;;;;;4.30;3.90;;;19.10;50.00;;;;;;4939294;28;20234;-67
2023/01/19 09:33:15;;;;;;;5.00;4.50;;;19.20;49.50;;;;;;4932584;29;20210;-67
2023/01/19 09:35:43;;;;;;;4.38;3.97;;;19.10;49.50;;;;;;4955708;28;20272;-67
2023/01/19 09:38:10;;;;;;;4.68;3.88;;;19.20;49.60;;;;;;4942589;28;20654;-67
2023/01/19 09:40:51;;;;;;;4.60;4.20;;;19.20;49.60;;;;;;4942622;28;20190;-67
2023/01/19 09:43:47;;;;;;;4.70;4.18;;;19.20;49.60;;;;;;4952085;28;20304;-67
2023/01/19 09:46:35;;;;;;;4.68;4.28;;;19.20;49.60;;;;;;4958876;28;20285;-67
2023/01/19 09:49:20;;;;;;;4.25;3.85;;;19.20;49.60;;;;;;4939917;28;20203;-66
2023/01/19 09:51:49;;;;;;;4.68;4.07;;;19.20;49.60;;;;;;4923315;28;20214;-67
2023/01/19 09:54:39;;;;;;;4.50;4.10;;;19.20;49.60;;;;;;4938952;29;20272;-67
2023/01/19 09:57:15;;;;;;;3.85;3.50;;;19.20;49.70;;;;;;4945058;28;20186;-68
2023/01/19 09:59:42;;;;;;;5.15;4.38;;;19.20;49.70;;;;;;4971715;28;20181;-67
2023/01/19 10:02:45;;;;;;;4.35;3.95;;;19.20;49.70;;;;;;4958181;28;20189;-67
2023/01/19 10:05:32;;;;;;;4.35;3.40;;;19.20;49.70;;;;;;4963190;28;20187;-67
2023/01/19 10:08:21;;;;;;;4.13;3.72;;;19.20;49.70;;;;;;4940394;28;20281;-67
2023/01/19 10:10:53;;;;;;;4.30;3.50;;;19.20;49.70;;;;;;4955968;28;20210;-67
2023/01/19 10:13:40;;;;;;;3.90;3.53;;;19.20;49.80;;;;;;4974286;28;20292;-67
2023/01/19 10:16:40;;;;;;;4.20;3.70;;;19.20;49.90;;;;;;4973998;28;20198;-67
2023/01/19 10:19:35;;;;;;;3.65;3.35;;;19.20;49.80;;;;;;4974588;28;20240;-67
2023/01/19 10:22:22;;;;;;;3.80;3.50;;;19.20;49.80;;;;;;4947609;28;20580;-67
2023/01/19 10:24:55;;;;;;;3.47;3.17;;;19.30;49.90;;;;;;4955109;28;20200;-67
2023/01/19 10:27:29;;;;;;;4.07;3.53;;;19.30;49.90;;;;;;4938630;29;20285;-67
2023/01/19 10:29:57;;;;;;;3.80;3.50;;;19.30;50.00;;;;;;4954023;28;20182;-67
2023/01/19 10:32:31;;;;;;;3.83;3.53;;;19.30;49.90;;;;;;4938497;29;20354;-67
2023/01/19 10:34:58;;;;;;;3.75;3.45;;;19.30;50.00;;;;;;4943899;28;20280;-67
2023/01/19 10:37:29;;;;;;;3.92;3.42;;;19.30;49.90;;;;;;4974803;28;20189;-67
2023/01/19 10:40:27;;;;;;;3.55;3.25;;;19.30;50.00;;;;;;4957225;28;20197;-68
2023/01/19 10:42:55;;;;;;;4.18;3.78;;;19.30;49.90;;;;;;4956259;28;20209;-68
2023/01/19 10:45:28;;;;;;;3.70;3.35;;;19.30;49.90;;;;;;4938286;29;20198;-68
2023/01/19 10:47:58;;;;;;;3.20;2.90;;;19.30;49.90;;;;;;4955182;28;20186;-68
2023/01/19 10:50:35;;;;;;;3.35;3.05;;;19.30;50.00;;;;;;4954593;29;20718;-66
2023/01/19 10:53:06;;;;;;;2.92;2.72;;;19.30;50.00;;;;;;5003413;22;20581;-66
2023/01/19 10:55:38;;;;;;;3.10;2.80;;;19.30;50.00;;;;;;4990478;28;20208;-66
2023/01/19 10:58:24;;;;;;;3.50;3.20;;;19.30;50.00;;;;;;4987489;28;20189;-66
2023/01/19 11:00:50;;;;;;;3.20;3.00;;;19.30;50.00;;;;;;4993009;28;20185;-66
2023/01/19 11:03:30;;;;;;;3.35;3.10;;;19.40;50.00;;;;;;4985032;28;20604;-67
2023/01/19 11:06:14;;;;;;;3.42;3.13;;;19.40;50.10;;;;;;4986379;28;20207;-66
2023/01/19 11:08:42;;;;;;;3.28;2.97;;;19.40;50.10;;;;;;4972636;28;20219;-66
2023/01/19 11:11:11;;;;;;;3.22;2.90;;;19.40;50.10;;;;;;5005537;28;20231;-66
2023/01/19 11:13:39;;;;;;;2.80;2.60;;;19.40;50.20;;;;;;5005532;28;20212;-67
2023/01/19 11:16:27;;;;;;;3.30;3.00;;;19.40;50.80;;;;;;5008190;28;20192;-66
2023/01/19 11:18:56;;;;;;;4.15;3.20;;;19.40;50.20;;;;;;4987497;28;20189;-66
2023/01/19 11:21:25;;;;;;;4.18;3.50;;;19.40;50.20;;;;;;4965237;28;20203;-66
2023/01/19 11:23:56;;;;;;;8.65;5.90;;;19.50;50.30;;;;;;4992847;28;20243;-65
2023/01/19 11:26:26;;;;;;;25.70;15.55;;;19.50;50.40;;;;;;4973118;28;20219;-67
2023/01/19 11:28:56;;;;;;;31.73;20.30;;;19.40;50.30;;;;;;4967847;28;20194;-66
2023/01/19 11:31:28;;;;;;;33.85;21.20;;;19.50;50.30;;;;;;4977504;28;20204;-66
2023/01/19 11:33:57;;;;;;;34.53;22.83;;;19.40;50.10;;;;;;4992420;28;20292;-66
2023/01/19 11:36:27;;;;;;;31.67;21.08;;;19.40;50.00;;;;;;4981001;28;20644;-66
2023/01/19 11:39:22;;;;;;;34.80;22.58;;;19.40;50.00;;;;;;4969115;28;20289;-66
2023/01/19 11:42:03;;;;;;;40.97;23.23;;;19.40;50.00;;;;;;4960314;28;20209;-66
2023/01/19 11:44:36;;;;;;;38.03;23.92;;;19.50;50.20;;;;;;4975108;28;20214;-67
2023/01/19 11:47:16;;;;;;;46.30;28.77;;;19.50;50.20;;;;;;4974476;28;20200;-66
2023/01/19 11:49:51;;;;;;;46.75;29.00;;;19.50;50.20;;;;;;4964332;28;20200;-68
2023/01/19 11:52:46;;;;;;;46.35;29.90;;;19.50;50.20;;;;;;4980640;28;20197;-66
2023/01/19 11:55:34;;;;;;;45.97;30.30;;;19.50;50.20;;;;;;4975910;28;20667;-68
2023/01/19 11:58:01;;;;;;;51.85;32.45;;;19.50;50.20;;;;;;5001771;28;20199;-67
2023/01/19 12:00:43;;;;;;;53.95;33.40;;;19.50;50.30;;;;;;4972992;28;20249;-67
2023/01/19 12:03:40;;;;;;;52.97;33.42;;;19.50;50.30;;;;;;4962864;28;20217;-67
2023/01/19 12:06:19;;;;;;;61.95;36.55;;;19.50;50.30;;;;;;4980718;28;20212;-67
2023/01/19 12:08:52;;;;;;;62.95;38.33;;;19.50;50.30;;;;;;4991342;28;20196;-66
2023/01/19 12:11:26;;;;;;;58.65;36.13;;;19.60;50.30;;;;;;5005120;28;20320;-67
2023/01/19 12:13:52;;;;;;;64.05;37.88;;;19.60;50.30;;;;;;4978985;28;20212;-67
2023/01/19 12:16:29;;;;;;;61.95;38.28;;;19.50;50.30;;;;;;4986937;28;20194;-67
2023/01/19 12:19:20;;;;;;;67.30;39.10;;;19.50;50.40;;;;;;4986921;28;20188;-68
2023/01/19 12:21:47;;;;;;;61.53;40.67;;;19.50;50.40;;;;;;4986946;28;20199;-67
2023/01/19 12:24:28;;;;;;;61.97;38.55;;;19.60;50.50;;;;;;4979115;28;20219;-67
2023/01/19 12:26:57;;;;;;;60.40;40.22;;;19.50;50.40;;;;;;4975894;28;20185;-67
2023/01/19 12:29:30;;;;;;;65.25;41.25;;;19.60;50.40;;;;;;4987557;28;20213;-67
2023/01/19 12:32:13;;;;;;;66.30;41.58;;;19.60;50.50;;;;;;5003560;28;20200;-66
2023/01/19 12:34:45;;;;;;;69.63;41.80;;;19.60;50.40;;;;;;4986447;28;20223;-68
2023/01/19 12:37:40;;;;;;;67.03;41.72;;;19.60;50.50;;;;;;4984099;28;20188;-69
2023/01/19 12:40:27;;;;;;;69.45;43.00;;;19.60;50.50;;;;;;4992680;28;20204;-69
2023/01/19 12:43:02;;;;;;;65.60;41.75;;;19.60;50.60;;;;;;4970364;28;20223;-69
2023/01/19 12:45:34;;;;;;;69.07;42.25;;;19.60;50.60;;;;;;4972428;28;20274;-70
2023/01/19 12:48:03;;;;;;;68.85;43.53;;;19.60;50.60;;;;;;4986637;28;20196;-68
2023/01/19 12:50:36;;;;;;;66.80;44.20;;;19.60;50.60;;;;;;5003746;28;20190;-68
2023/01/19 12:53:14;;;;;;;67.53;43.90;;;19.60;50.60;;;;;;4986481;28;20224;-69
2023/01/19 12:55:45;;;;;;;67.80;43.03;;;19.60;50.60;;;;;;4985692;28;20195;-69
2023/01/19 12:58:23;;;;;;;70.82;45.00;;;19.60;50.60;;;;;;4984571;28;20212;-69
2023/01/19 13:01:17;;;;;;;70.50;45.50;;;19.60;50.60;;;;;;4978515;28;20184;-69
2023/01/19 13:04:06;;;;;;;68.03;43.65;;;19.60;50.60;;;;;;4969083;28;20204;-69
2023/01/19 13:07:04;;;;;;;74.88;47.42;;;19.60;50.70;;;;;;4965119;28;20200;-69
2023/01/19 13:09:36;;;;;;;65.07;43.88;;;19.60;50.60;;;;;;5005348;28;20184;-69
2023/01/19 13:12:14;;;;;;;68.28;44.90;;;19.60;50.70;;;;;;4978712;28;20216;-69
2023/01/19 13:14:43;;;;;;;65.22;44.53;;;19.60;50.70;;;;;;4976007;28;20216;-69
2023/01/19 13:17:32;;;;;;;68.60;44.70;;;19.60;50.70;;;;;;5003889;28;20176;-69